sensor_id;sensor_type;location;lat;lon;timestamp;temperature;humidity
210;DHT22;90;48.810;9.120;2023-04-25T00:00:21;10.20;74.50
210;DHT22;90;48.810;9.120;2023-04-25T00:02:47;10.30;74.30
210;DHT22;90;48.810;9.120;2023-04-25T00:05:14;10.30;73.70
210;DHT22;90;48.810;9.120;2023-04-25T00:07:41;10.40;73.30
210;DHT22;90;48.810;9.120;2023-04-25T00:10:10;10.40;73.10
210;DHT22;90;48.810;9.120;2023-04-25T00:12:37;10.50;73.10
210;DHT22;90;48.810;9.120;2023-04-25T00:15:06;10.50;73.10
210;DHT22;90;48.810;9.120;2023-04-25T00:20:00;10.50;72.90
210;DHT22;90;48.810;9.120;2023-04-25T00:22:30;10.50;72.80
210;DHT22;90;48.810;9.120;2023-04-25T00:24:57;10.50;73.00
210;DHT22;90;48.810;9.120;2023-04-25T00:27:26;10.50;72.90
210;DHT22;90;48.810;9.120;2023-04-25T00:29:53;10.50;73.00
210;DHT22;90;48.810;9.120;2023-04-25T00:32:20;10.40;73.20
210;DHT22;90;48.810;9.120;2023-04-25T00:34:47;10.40;73.30
210;DHT22;90;48.810;9.120;2023-04-25T00:37:13;10.40;73.10
210;DHT22;90;48.810;9.120;2023-04-25T00:39:40;10.40;73.30
210;DHT22;90;48.810;9.120;2023-04-25T00:42:07;10.50;73.30
210;DHT22;90;48.810;9.120;2023-04-25T00:44:36;10.50;73.30
210;DHT22;90;48.810;9.120;2023-04-25T00:47:04;10.50;73.20
210;DHT22;90;48.810;9.120;2023-04-25T00:49:31;10.40;73.50
210;DHT22;90;48.810;9.120;2023-04-25T00:51:58;10.50;73.60
210;DHT22;90;48.810;9.120;2023-04-25T00:54:25;10.50;73.70
210;DHT22;90;48.810;9.120;2023-04-25T00:56:52;10.30;73.80
210;DHT22;90;48.810;9.120;2023-04-25T00:59:19;10.20;74.40
210;DHT22;90;48.810;9.120;2023-04-25T01:01:48;10.30;74.60
210;DHT22;90;48.810;9.120;2023-04-25T01:04:15;10.50;74.30
210;DHT22;90;48.810;9.120;2023-04-25T01:06:42;10.60;74.30
210;DHT22;90;48.810;9.120;2023-04-25T01:09:08;10.60;74.00
210;DHT22;90;48.810;9.120;2023-04-25T01:11:35;10.60;74.00
210;DHT22;90;48.810;9.120;2023-04-25T01:14:02;10.30;73.70
210;DHT22;90;48.810;9.120;2023-04-25T01:16:29;10.40;74.30
210;DHT22;90;48.810;9.120;2023-04-25T01:18:57;10.40;74.70
210;DHT22;90;48.810;9.120;2023-04-25T01:21:26;10.40;74.10
210;DHT22;90;48.810;9.120;2023-04-25T01:23:55;10.30;74.70
210;DHT22;90;48.810;9.120;2023-04-25T01:26:23;10.30;74.70
210;DHT22;90;48.810;9.120;2023-04-25T01:28:50;10.30;74.70
210;DHT22;90;48.810;9.120;2023-04-25T01:31:17;10.30;74.60
210;DHT22;90;48.810;9.120;2023-04-25T01:33:44;10.40;74.30
210;DHT22;90;48.810;9.120;2023-04-25T01:36:12;10.30;74.40
210;DHT22;90;48.810;9.120;2023-04-25T01:38:41;10.20;74.70
210;DHT22;90;48.810;9.120;2023-04-25T01:41:09;10.30;74.60
210;DHT22;90;48.810;9.120;2023-04-25T01:43:36;10.30;74.60
210;DHT22;90;48.810;9.120;2023-04-25T01:46:03;10.30;74.60
210;DHT22;90;48.810;9.120;2023-04-25T01:48:30;10.30;74.60
210;DHT22;90;48.810;9.120;2023-04-25T01:50:57;10.30;74.50
210;DHT22;90;48.810;9.120;2023-04-25T01:53:24;10.30;74.30
210;DHT22;90;48.810;9.120;2023-04-25T01:55:52;10.40;74.00
210;DHT22;90;48.810;9.120;2023-04-25T01:58:19;10.40;73.90
210;DHT22;90;48.810;9.120;2023-04-25T02:00:46;10.40;73.70
210;DHT22;90;48.810;9.120;2023-04-25T02:03:13;10.40;73.90
210;DHT22;90;48.810;9.120;2023-04-25T02:05:40;10.40;73.90
210;DHT22;90;48.810;9.120;2023-04-25T02:08:09;10.30;74.20
210;DHT22;90;48.810;9.120;2023-04-25T02:10:36;10.30;74.70
210;DHT22;90;48.810;9.120;2023-04-25T02:13:04;10.30;74.60
210;DHT22;90;48.810;9.120;2023-04-25T02:15:31;10.20;74.70
210;DHT22;90;48.810;9.120;2023-04-25T02:17:58;10.30;74.80
210;DHT22;90;48.810;9.120;2023-04-25T02:20:26;10.30;74.60
210;DHT22;90;48.810;9.120;2023-04-25T02:22:53;10.40;74.60
210;DHT22;90;48.810;9.120;2023-04-25T02:25:20;10.40;74.60
210;DHT22;90;48.810;9.120;2023-04-25T02:27:47;10.40;74.60
210;DHT22;90;48.810;9.120;2023-04-25T02:30:15;10.40;74.60
210;DHT22;90;48.810;9.120;2023-04-25T02:32:42;10.30;74.90
210;DHT22;90;48.810;9.120;2023-04-25T02:35:10;10.30;74.70
210;DHT22;90;48.810;9.120;2023-04-25T02:37:38;10.30;74.80
210;DHT22;90;48.810;9.120;2023-04-25T02:40:06;10.20;75.00
210;DHT22;90;48.810;9.120;2023-04-25T02:42:33;10.10;75.30
210;DHT22;90;48.810;9.120;2023-04-25T02:45:00;10.20;75.30
210;DHT22;90;48.810;9.120;2023-04-25T02:47:28;10.20;75.40
210;DHT22;90;48.810;9.120;2023-04-25T02:49:55;10.20;75.50
210;DHT22;90;48.810;9.120;2023-04-25T02:52:21;10.20;75.60
210;DHT22;90;48.810;9.120;2023-04-25T02:54:48;10.20;75.70
210;DHT22;90;48.810;9.120;2023-04-25T02:57:15;10.20;75.60
210;DHT22;90;48.810;9.120;2023-04-25T02:59:41;10.10;75.80
210;DHT22;90;48.810;9.120;2023-04-25T03:02:08;10.00;76.10
210;DHT22;90;48.810;9.120;2023-04-25T03:04:36;10.10;75.90
210;DHT22;90;48.810;9.120;2023-04-25T03:07:03;9.90;75.90
210;DHT22;90;48.810;9.120;2023-04-25T03:09:30;9.80;76.30
210;DHT22;90;48.810;9.120;2023-04-25T03:11:57;9.80;76.40
210;DHT22;90;48.810;9.120;2023-04-25T03:14:23;9.70;76.60
210;DHT22;90;48.810;9.120;2023-04-25T03:16:50;9.70;76.50
210;DHT22;90;48.810;9.120;2023-04-25T03:19:17;9.70;76.90
210;DHT22;90;48.810;9.120;2023-04-25T03:21:45;9.70;77.00
210;DHT22;90;48.810;9.120;2023-04-25T03:24:12;9.80;76.90
210;DHT22;90;48.810;9.120;2023-04-25T03:26:38;9.80;76.50
210;DHT22;90;48.810;9.120;2023-04-25T03:29:05;10.10;76.80
210;DHT22;90;48.810;9.120;2023-04-25T03:31:32;10.10;76.00
210;DHT22;90;48.810;9.120;2023-04-25T03:33:59;10.00;75.80
210;DHT22;90;48.810;9.120;2023-04-25T03:36:26;10.00;75.80
210;DHT22;90;48.810;9.120;2023-04-25T03:38:54;9.90;76.00
210;DHT22;90;48.810;9.120;2023-04-25T03:41:20;9.70;76.50
210;DHT22;90;48.810;9.120;2023-04-25T03:43:47;9.60;77.10
210;DHT22;90;48.810;9.120;2023-04-25T03:46:14;9.60;77.00
210;DHT22;90;48.810;9.120;2023-04-25T03:48:40;9.60;77.10
210;DHT22;90;48.810;9.120;2023-04-25T03:51:07;9.70;76.60
210;DHT22;90;48.810;9.120;2023-04-25T03:53:33;9.60;76.60
210;DHT22;90;48.810;9.120;2023-04-25T03:56:02;9.70;76.80
210;DHT22;90;48.810;9.120;2023-04-25T03:58:28;9.70;76.90
210;DHT22;90;48.810;9.120;2023-04-25T04:00:55;9.70;76.80
210;DHT22;90;48.810;9.120;2023-04-25T04:03:22;9.80;76.60
210;DHT22;90;48.810;9.120;2023-04-25T04:05:49;9.70;76.60
210;DHT22;90;48.810;9.120;2023-04-25T04:08:15;9.80;76.70
210;DHT22;90;48.810;9.120;2023-04-25T04:10:42;9.70;76.70
210;DHT22;90;48.810;9.120;2023-04-25T04:13:10;9.80;76.70
210;DHT22;90;48.810;9.120;2023-04-25T04:15:37;9.80;76.80
210;DHT22;90;48.810;9.120;2023-04-25T04:18:03;9.70;77.30
210;DHT22;90;48.810;9.120;2023-04-25T04:20:31;9.70;77.20
210;DHT22;90;48.810;9.120;2023-04-25T04:22:58;9.80;77.30
210;DHT22;90;48.810;9.120;2023-04-25T04:25:25;9.80;77.40
210;DHT22;90;48.810;9.120;2023-04-25T04:27:51;9.70;77.30
210;DHT22;90;48.810;9.120;2023-04-25T04:30:21;9.70;77.40
210;DHT22;90;48.810;9.120;2023-04-25T04:32:49;9.70;77.40
210;DHT22;90;48.810;9.120;2023-04-25T04:35:16;9.60;77.40
210;DHT22;90;48.810;9.120;2023-04-25T04:37:43;9.50;78.00
210;DHT22;90;48.810;9.120;2023-04-25T04:40:11;9.50;78.40
210;DHT22;90;48.810;9.120;2023-04-25T04:42:40;9.50;78.30
210;DHT22;90;48.810;9.120;2023-04-25T04:45:08;9.60;78.40
210;DHT22;90;48.810;9.120;2023-04-25T04:47:36;9.60;78.30
210;DHT22;90;48.810;9.120;2023-04-25T04:50:05;9.50;78.40
210;DHT22;90;48.810;9.120;2023-04-25T04:52:32;9.50;78.70
210;DHT22;90;48.810;9.120;2023-04-25T04:54:59;9.60;78.40
210;DHT22;90;48.810;9.120;2023-04-25T04:57:26;9.60;78.60
210;DHT22;90;48.810;9.120;2023-04-25T04:59:53;9.60;79.00
210;DHT22;90;48.810;9.120;2023-04-25T05:02:20;9.70;78.40
210;DHT22;90;48.810;9.120;2023-04-25T05:04:48;9.60;78.20
210;DHT22;90;48.810;9.120;2023-04-25T05:07:17;9.50;79.10
210;DHT22;90;48.810;9.120;2023-04-25T05:09:43;9.50;79.20
210;DHT22;90;48.810;9.120;2023-04-25T05:12:10;9.60;79.00
210;DHT22;90;48.810;9.120;2023-04-25T05:14:37;9.50;79.10
210;DHT22;90;48.810;9.120;2023-04-25T05:17:04;9.50;79.10
210;DHT22;90;48.810;9.120;2023-04-25T05:19:33;9.50;78.90
210;DHT22;90;48.810;9.120;2023-04-25T05:22:02;9.60;78.40
210;DHT22;90;48.810;9.120;2023-04-25T05:24:29;9.40;79.00
210;DHT22;90;48.810;9.120;2023-04-25T05:26:56;9.40;78.90
210;DHT22;90;48.810;9.120;2023-04-25T05:29:22;9.30;78.90
210;DHT22;90;48.810;9.120;2023-04-25T05:31:49;9.20;79.10
210;DHT22;90;48.810;9.120;2023-04-25T05:34:16;9.40;82.70
210;DHT22;90;48.810;9.120;2023-04-25T05:36:43;9.40;79.40
210;DHT22;90;48.810;9.120;2023-04-25T05:39:11;9.30;80.50
210;DHT22;90;48.810;9.120;2023-04-25T05:41:37;9.30;80.40
210;DHT22;90;48.810;9.120;2023-04-25T05:44:05;9.20;80.80
210;DHT22;90;48.810;9.120;2023-04-25T05:46:32;9.20;80.70
210;DHT22;90;48.810;9.120;2023-04-25T05:48:59;9.30;80.40
210;DHT22;90;48.810;9.120;2023-04-25T05:51:25;9.40;79.80
210;DHT22;90;48.810;9.120;2023-04-25T05:53:53;9.40;79.50
210;DHT22;90;48.810;9.120;2023-04-25T05:56:21;9.40;78.70
210;DHT22;90;48.810;9.120;2023-04-25T05:58:47;9.60;81.00
210;DHT22;90;48.810;9.120;2023-04-25T06:01:14;9.70;77.50
210;DHT22;90;48.810;9.120;2023-04-25T06:03:43;9.60;77.40
210;DHT22;90;48.810;9.120;2023-04-25T06:06:11;9.60;77.70
210;DHT22;90;48.810;9.120;2023-04-25T06:08:38;9.70;77.60
210;DHT22;90;48.810;9.120;2023-04-25T06:11:05;9.60;77.20
210;DHT22;90;48.810;9.120;2023-04-25T06:13:34;9.60;77.30
210;DHT22;90;48.810;9.120;2023-04-25T06:16:01;9.70;77.10
210;DHT22;90;48.810;9.120;2023-04-25T06:18:28;9.70;77.20
210;DHT22;90;48.810;9.120;2023-04-25T06:20:54;9.70;77.10
210;DHT22;90;48.810;9.120;2023-04-25T06:23:21;9.70;77.60
210;DHT22;90;48.810;9.120;2023-04-25T06:25:48;9.80;77.50
210;DHT22;90;48.810;9.120;2023-04-25T06:28:15;9.90;76.30
210;DHT22;90;48.810;9.120;2023-04-25T06:30:43;9.80;76.70
210;DHT22;90;48.810;9.120;2023-04-25T06:33:10;9.80;76.50
210;DHT22;90;48.810;9.120;2023-04-25T06:35:37;9.80;76.40
210;DHT22;90;48.810;9.120;2023-04-25T06:38:03;9.70;77.10
210;DHT22;90;48.810;9.120;2023-04-25T06:40:30;9.80;77.20
210;DHT22;90;48.810;9.120;2023-04-25T06:42:57;9.80;76.70
210;DHT22;90;48.810;9.120;2023-04-25T06:45:23;9.80;77.00
210;DHT22;90;48.810;9.120;2023-04-25T06:47:51;9.90;76.90
210;DHT22;90;48.810;9.120;2023-04-25T06:50:18;9.90;76.80
210;DHT22;90;48.810;9.120;2023-04-25T06:52:46;9.90;76.00
210;DHT22;90;48.810;9.120;2023-04-25T06:55:13;9.90;76.20
210;DHT22;90;48.810;9.120;2023-04-25T06:57:40;9.90;76.70
210;DHT22;90;48.810;9.120;2023-04-25T07:00:07;9.90;76.80
210;DHT22;90;48.810;9.120;2023-04-25T07:02:35;9.90;75.50
210;DHT22;90;48.810;9.120;2023-04-25T07:05:03;9.90;75.80
210;DHT22;90;48.810;9.120;2023-04-25T07:07:31;9.80;76.80
210;DHT22;90;48.810;9.120;2023-04-25T07:09:57;9.90;77.20
210;DHT22;90;48.810;9.120;2023-04-25T07:12:24;9.90;76.80
210;DHT22;90;48.810;9.120;2023-04-25T07:14:51;9.80;76.50
210;DHT22;90;48.810;9.120;2023-04-25T07:17:18;9.90;78.70
210;DHT22;90;48.810;9.120;2023-04-25T07:19:44;9.90;76.20
210;DHT22;90;48.810;9.120;2023-04-25T07:22:12;9.90;76.60
210;DHT22;90;48.810;9.120;2023-04-25T07:24:39;9.70;76.90
210;DHT22;90;48.810;9.120;2023-04-25T07:27:06;9.60;77.20
210;DHT22;90;48.810;9.120;2023-04-25T07:29:33;9.60;77.70
210;DHT22;90;48.810;9.120;2023-04-25T07:32:02;9.80;77.30
210;DHT22;90;48.810;9.120;2023-04-25T07:34:29;9.80;77.20
210;DHT22;90;48.810;9.120;2023-04-25T07:36:57;9.80;77.40
210;DHT22;90;48.810;9.120;2023-04-25T07:39:26;9.70;77.90
210;DHT22;90;48.810;9.120;2023-04-25T07:41:52;9.70;78.00
210;DHT22;90;48.810;9.120;2023-04-25T07:44:19;9.60;78.50
210;DHT22;90;48.810;9.120;2023-04-25T07:46:46;9.70;82.20
210;DHT22;90;48.810;9.120;2023-04-25T07:49:12;9.80;80.20
210;DHT22;90;48.810;9.120;2023-04-25T07:51:39;9.70;80.80
210;DHT22;90;48.810;9.120;2023-04-25T07:54:06;9.60;81.40
210;DHT22;90;48.810;9.120;2023-04-25T07:56:34;9.60;82.00
210;DHT22;90;48.810;9.120;2023-04-25T07:59:01;9.70;82.00
210;DHT22;90;48.810;9.120;2023-04-25T08:01:28;10.20;90.20
210;DHT22;90;48.810;9.120;2023-04-25T08:03:55;10.40;87.50
210;DHT22;90;48.810;9.120;2023-04-25T08:06:21;10.50;88.70
210;DHT22;90;48.810;9.120;2023-04-25T08:08:48;10.70;83.30
210;DHT22;90;48.810;9.120;2023-04-25T08:11:15;10.50;81.40
210;DHT22;90;48.810;9.120;2023-04-25T08:13:43;10.30;81.40
210;DHT22;90;48.810;9.120;2023-04-25T08:16:09;10.10;81.90
210;DHT22;90;48.810;9.120;2023-04-25T08:18:36;10.00;82.90
210;DHT22;90;48.810;9.120;2023-04-25T08:21:03;9.80;83.50
210;DHT22;90;48.810;9.120;2023-04-25T08:23:30;9.60;84.30
210;DHT22;90;48.810;9.120;2023-04-25T08:25:56;9.50;84.20
210;DHT22;90;48.810;9.120;2023-04-25T08:28:23;9.50;85.50
210;DHT22;90;48.810;9.120;2023-04-25T08:30:51;9.40;85.60
210;DHT22;90;48.810;9.120;2023-04-25T08:33:18;9.30;86.00
210;DHT22;90;48.810;9.120;2023-04-25T08:35:45;9.40;86.20
210;DHT22;90;48.810;9.120;2023-04-25T08:38:12;9.40;86.50
210;DHT22;90;48.810;9.120;2023-04-25T08:40:39;9.50;86.90
210;DHT22;90;48.810;9.120;2023-04-25T08:43:07;9.50;86.70
210;DHT22;90;48.810;9.120;2023-04-25T08:45:39;9.60;86.80
210;DHT22;90;48.810;9.120;2023-04-25T08:48:10;9.60;86.40
210;DHT22;90;48.810;9.120;2023-04-25T08:50:39;9.70;86.10
210;DHT22;90;48.810;9.120;2023-04-25T08:53:08;9.60;85.70
210;DHT22;90;48.810;9.120;2023-04-25T08:55:37;9.60;85.20
210;DHT22;90;48.810;9.120;2023-04-25T08:58:05;9.60;85.00
210;DHT22;90;48.810;9.120;2023-04-25T09:00:32;9.50;84.90
210;DHT22;90;48.810;9.120;2023-04-25T09:02:59;9.60;85.20
210;DHT22;90;48.810;9.120;2023-04-25T09:05:28;9.60;85.30
210;DHT22;90;48.810;9.120;2023-04-25T09:07:55;9.60;85.40
210;DHT22;90;48.810;9.120;2023-04-25T09:10:21;9.60;85.50
210;DHT22;90;48.810;9.120;2023-04-25T09:13:02;9.60;85.10
210;DHT22;90;48.810;9.120;2023-04-25T09:15:30;9.60;85.60
210;DHT22;90;48.810;9.120;2023-04-25T09:17:57;9.60;85.30
210;DHT22;90;48.810;9.120;2023-04-25T09:20:24;9.60;85.90
210;DHT22;90;48.810;9.120;2023-04-25T09:23:03;9.60;86.10
210;DHT22;90;48.810;9.120;2023-04-25T09:25:34;9.60;85.90
210;DHT22;90;48.810;9.120;2023-04-25T09:28:04;9.80;85.60
210;DHT22;90;48.810;9.120;2023-04-25T09:30:32;9.70;85.00
210;DHT22;90;48.810;9.120;2023-04-25T09:33:04;9.60;85.40
210;DHT22;90;48.810;9.120;2023-04-25T09:35:35;9.60;85.20
210;DHT22;90;48.810;9.120;2023-04-25T09:38:08;9.70;84.80
210;DHT22;90;48.810;9.120;2023-04-25T09:40:39;9.60;85.10
210;DHT22;90;48.810;9.120;2023-04-25T09:43:09;9.60;85.60
210;DHT22;90;48.810;9.120;2023-04-25T09:45:41;9.60;86.30
210;DHT22;90;48.810;9.120;2023-04-25T09:48:11;9.60;85.90
210;DHT22;90;48.810;9.120;2023-04-25T09:50:38;9.60;86.30
210;DHT22;90;48.810;9.120;2023-04-25T09:53:05;9.60;86.40
210;DHT22;90;48.810;9.120;2023-04-25T09:55:34;9.60;85.60
210;DHT22;90;48.810;9.120;2023-04-25T09:58:04;9.60;85.30
210;DHT22;90;48.810;9.120;2023-04-25T10:00:32;9.60;84.70
210;DHT22;90;48.810;9.120;2023-04-25T10:03:01;9.50;85.60
210;DHT22;90;48.810;9.120;2023-04-25T10:05:31;9.30;84.30
210;DHT22;90;48.810;9.120;2023-04-25T10:08:02;9.20;84.40
210;DHT22;90;48.810;9.120;2023-04-25T10:10:30;9.20;84.40
210;DHT22;90;48.810;9.120;2023-04-25T10:13:03;9.10;86.00
210;DHT22;90;48.810;9.120;2023-04-25T10:15:32;9.00;85.90
210;DHT22;90;48.810;9.120;2023-04-25T10:18:01;9.00;85.50
210;DHT22;90;48.810;9.120;2023-04-25T10:20:29;9.10;85.30
210;DHT22;90;48.810;9.120;2023-04-25T10:23:01;9.10;85.10
210;DHT22;90;48.810;9.120;2023-04-25T10:25:30;9.20;84.70
210;DHT22;90;48.810;9.120;2023-04-25T10:27:59;9.00;84.50
210;DHT22;90;48.810;9.120;2023-04-25T10:30:27;9.00;85.40
210;DHT22;90;48.810;9.120;2023-04-25T10:32:55;9.00;85.80
210;DHT22;90;48.810;9.120;2023-04-25T10:35:25;8.90;86.20
210;DHT22;90;48.810;9.120;2023-04-25T10:38:08;8.80;87.50
210;DHT22;90;48.810;9.120;2023-04-25T10:40:35;8.80;87.10
210;DHT22;90;48.810;9.120;2023-04-25T10:43:34;8.70;87.50
210;DHT22;90;48.810;9.120;2023-04-25T10:46:13;8.80;87.70
210;DHT22;90;48.810;9.120;2023-04-25T10:48:45;8.70;87.30
210;DHT22;90;48.810;9.120;2023-04-25T10:51:16;8.70;87.90
210;DHT22;90;48.810;9.120;2023-04-25T10:53:44;8.70;88.50
210;DHT22;90;48.810;9.120;2023-04-25T10:56:11;8.60;88.70
210;DHT22;90;48.810;9.120;2023-04-25T10:58:42;8.70;88.40
210;DHT22;90;48.810;9.120;2023-04-25T11:01:11;8.80;87.60
210;DHT22;90;48.810;9.120;2023-04-25T11:03:40;8.70;87.10
210;DHT22;90;48.810;9.120;2023-04-25T11:06:17;8.80;86.40
210;DHT22;90;48.810;9.120;2023-04-25T11:08:48;8.90;85.50
210;DHT22;90;48.810;9.120;2023-04-25T11:11:17;8.80;84.10
210;DHT22;90;48.810;9.120;2023-04-25T11:13:44;8.90;83.90
210;DHT22;90;48.810;9.120;2023-04-25T11:16:12;8.80;82.70
210;DHT22;90;48.810;9.120;2023-04-25T11:18:41;8.70;84.50
210;DHT22;90;48.810;9.120;2023-04-25T11:21:08;8.70;84.50
210;DHT22;90;48.810;9.120;2023-04-25T11:23:34;8.80;85.50
210;DHT22;90;48.810;9.120;2023-04-25T11:26:02;8.70;84.30
210;DHT22;90;48.810;9.120;2023-04-25T11:28:28;8.80;85.20
210;DHT22;90;48.810;9.120;2023-04-25T11:30:55;8.90;84.30
210;DHT22;90;48.810;9.120;2023-04-25T11:33:27;8.80;82.70
210;DHT22;90;48.810;9.120;2023-04-25T11:35:54;8.80;84.50
210;DHT22;90;48.810;9.120;2023-04-25T11:38:23;8.90;85.10
210;DHT22;90;48.810;9.120;2023-04-25T11:40:52;8.80;84.10
210;DHT22;90;48.810;9.120;2023-04-25T11:43:20;8.90;84.70
210;DHT22;90;48.810;9.120;2023-04-25T11:45:48;9.00;84.90
210;DHT22;90;48.810;9.120;2023-04-25T11:48:15;9.20;85.10
210;DHT22;90;48.810;9.120;2023-04-25T11:50:43;9.40;85.10
210;DHT22;90;48.810;9.120;2023-04-25T11:53:10;9.40;84.70
210;DHT22;90;48.810;9.120;2023-04-25T11:55:37;9.20;84.40
210;DHT22;90;48.810;9.120;2023-04-25T11:58:04;9.20;84.10
210;DHT22;90;48.810;9.120;2023-04-25T12:00:32;9.20;84.40
210;DHT22;90;48.810;9.120;2023-04-25T12:02:58;9.40;84.60
210;DHT22;90;48.810;9.120;2023-04-25T12:05:27;9.50;84.60
210;DHT22;90;48.810;9.120;2023-04-25T12:07:56;9.50;83.30
210;DHT22;90;48.810;9.120;2023-04-25T12:10:24;9.40;83.50
210;DHT22;90;48.810;9.120;2023-04-25T12:12:52;9.40;83.70
210;DHT22;90;48.810;9.120;2023-04-25T12:15:24;9.40;83.10
210;DHT22;90;48.810;9.120;2023-04-25T12:17:53;9.30;83.00
210;DHT22;90;48.810;9.120;2023-04-25T12:20:21;9.20;85.00
210;DHT22;90;48.810;9.120;2023-04-25T12:22:51;9.20;84.60
210;DHT22;90;48.810;9.120;2023-04-25T12:25:37;9.20;84.30
210;DHT22;90;48.810;9.120;2023-04-25T12:28:12;9.30;83.90
210;DHT22;90;48.810;9.120;2023-04-25T12:30:59;9.30;84.70
210;DHT22;90;48.810;9.120;2023-04-25T12:33:29;9.40;84.10
210;DHT22;90;48.810;9.120;2023-04-25T12:35:56;9.50;83.10
210;DHT22;90;48.810;9.120;2023-04-25T12:38:25;9.70;83.00
210;DHT22;90;48.810;9.120;2023-04-25T12:40:54;9.90;82.70
210;DHT22;90;48.810;9.120;2023-04-25T12:43:20;10.10;81.90
210;DHT22;90;48.810;9.120;2023-04-25T12:45:48;10.30;81.30
210;DHT22;90;48.810;9.120;2023-04-25T12:48:15;10.40;82.50
210;DHT22;90;48.810;9.120;2023-04-25T12:50:42;10.50;81.50
210;DHT22;90;48.810;9.120;2023-04-25T12:53:09;10.60;81.00
210;DHT22;90;48.810;9.120;2023-04-25T12:55:36;10.50;79.80
210;DHT22;90;48.810;9.120;2023-04-25T12:58:04;10.40;79.50
210;DHT22;90;48.810;9.120;2023-04-25T13:00:30;10.30;79.40
210;DHT22;90;48.810;9.120;2023-04-25T13:02:57;10.30;79.60
210;DHT22;90;48.810;9.120;2023-04-25T13:05:24;10.30;80.70
210;DHT22;90;48.810;9.120;2023-04-25T13:07:51;10.20;80.30
210;DHT22;90;48.810;9.120;2023-04-25T13:10:17;10.30;80.20
210;DHT22;90;48.810;9.120;2023-04-25T13:12:44;10.30;78.50
210;DHT22;90;48.810;9.120;2023-04-25T13:15:12;10.30;80.70
210;DHT22;90;48.810;9.120;2023-04-25T13:17:41;10.40;79.30
210;DHT22;90;48.810;9.120;2023-04-25T13:20:09;10.20;79.60
210;DHT22;90;48.810;9.120;2023-04-25T13:22:36;10.30;81.00
210;DHT22;90;48.810;9.120;2023-04-25T13:25:04;10.40;78.60
210;DHT22;90;48.810;9.120;2023-04-25T13:27:31;10.30;79.70
210;DHT22;90;48.810;9.120;2023-04-25T13:29:59;10.30;79.90
210;DHT22;90;48.810;9.120;2023-04-25T13:32:27;10.20;79.20
210;DHT22;90;48.810;9.120;2023-04-25T13:34:54;10.10;81.70
210;DHT22;90;48.810;9.120;2023-04-25T13:37:21;10.10;82.70
210;DHT22;90;48.810;9.120;2023-04-25T13:39:49;10.10;81.20
210;DHT22;90;48.810;9.120;2023-04-25T13:42:16;10.10;81.50
210;DHT22;90;48.810;9.120;2023-04-25T13:44:43;10.20;81.00
210;DHT22;90;48.810;9.120;2023-04-25T13:47:09;10.20;80.90
210;DHT22;90;48.810;9.120;2023-04-25T13:49:38;10.20;79.30
210;DHT22;90;48.810;9.120;2023-04-25T13:52:05;10.40;80.90
210;DHT22;90;48.810;9.120;2023-04-25T13:54:33;10.50;81.00
210;DHT22;90;48.810;9.120;2023-04-25T13:57:00;10.50;79.70
210;DHT22;90;48.810;9.120;2023-04-25T13:59:27;10.40;79.50
210;DHT22;90;48.810;9.120;2023-04-25T14:01:53;10.50;79.80
210;DHT22;90;48.810;9.120;2023-04-25T14:04:21;10.60;78.20
210;DHT22;90;48.810;9.120;2023-04-25T14:06:49;10.60;77.40
210;DHT22;90;48.810;9.120;2023-04-25T14:09:16;10.60;77.90
210;DHT22;90;48.810;9.120;2023-04-25T14:11:42;10.70;76.90
210;DHT22;90;48.810;9.120;2023-04-25T14:14:09;10.90;75.90
210;DHT22;90;48.810;9.120;2023-04-25T14:16:37;11.10;76.30
210;DHT22;90;48.810;9.120;2023-04-25T14:19:04;11.20;75.80
210;DHT22;90;48.810;9.120;2023-04-25T14:21:31;11.20;75.70
210;DHT22;90;48.810;9.120;2023-04-25T14:24:00;11.60;74.40
210;DHT22;90;48.810;9.120;2023-04-25T14:26:27;11.90;73.40
210;DHT22;90;48.810;9.120;2023-04-25T14:28:53;12.00;71.50
210;DHT22;90;48.810;9.120;2023-04-25T14:31:20;12.10;72.60
210;DHT22;90;48.810;9.120;2023-04-25T14:33:47;12.00;71.70
210;DHT22;90;48.810;9.120;2023-04-25T14:36:13;12.00;72.40
210;DHT22;90;48.810;9.120;2023-04-25T14:38:40;12.00;71.00
210;DHT22;90;48.810;9.120;2023-04-25T14:41:08;11.80;69.70
210;DHT22;90;48.810;9.120;2023-04-25T14:43:36;11.60;69.60
210;DHT22;90;48.810;9.120;2023-04-25T14:46:02;11.40;71.80
210;DHT22;90;48.810;9.120;2023-04-25T14:48:29;11.40;72.70
210;DHT22;90;48.810;9.120;2023-04-25T14:50:56;11.40;73.40
210;DHT22;90;48.810;9.120;2023-04-25T14:53:23;11.40;73.00
210;DHT22;90;48.810;9.120;2023-04-25T14:55:50;11.30;72.80
210;DHT22;90;48.810;9.120;2023-04-25T14:58:18;11.20;73.00
210;DHT22;90;48.810;9.120;2023-04-25T15:00:45;11.10;74.60
210;DHT22;90;48.810;9.120;2023-04-25T15:03:12;11.20;74.30
210;DHT22;90;48.810;9.120;2023-04-25T15:05:39;11.30;73.10
210;DHT22;90;48.810;9.120;2023-04-25T15:08:06;11.30;72.50
210;DHT22;90;48.810;9.120;2023-04-25T15:10:33;11.20;73.00
210;DHT22;90;48.810;9.120;2023-04-25T15:13:00;11.20;73.00
210;DHT22;90;48.810;9.120;2023-04-25T15:15:28;11.20;73.30
210;DHT22;90;48.810;9.120;2023-04-25T15:17:56;11.20;73.20
210;DHT22;90;48.810;9.120;2023-04-25T15:20:23;11.50;73.00
210;DHT22;90;48.810;9.120;2023-04-25T15:22:50;11.90;71.00
210;DHT22;90;48.810;9.120;2023-04-25T15:25:17;11.90;69.10
210;DHT22;90;48.810;9.120;2023-04-25T15:27:44;11.80;68.40
210;DHT22;90;48.810;9.120;2023-04-25T15:30:14;11.70;68.50
210;DHT22;90;48.810;9.120;2023-04-25T15:32:43;11.50;69.30
210;DHT22;90;48.810;9.120;2023-04-25T15:35:10;11.50;71.20
210;DHT22;90;48.810;9.120;2023-04-25T15:37:38;11.60;71.60
210;DHT22;90;48.810;9.120;2023-04-25T15:40:07;11.50;70.30
210;DHT22;90;48.810;9.120;2023-04-25T15:42:35;11.50;71.30
210;DHT22;90;48.810;9.120;2023-04-25T15:45:02;11.40;71.20
210;DHT22;90;48.810;9.120;2023-04-25T15:47:29;11.30;71.90
210;DHT22;90;48.810;9.120;2023-04-25T15:49:58;11.30;72.60
210;DHT22;90;48.810;9.120;2023-04-25T15:52:25;11.40;72.60
210;DHT22;90;48.810;9.120;2023-04-25T15:54:53;11.50;72.30
210;DHT22;90;48.810;9.120;2023-04-25T15:57:20;11.50;71.90
210;DHT22;90;48.810;9.120;2023-04-25T15:59:47;11.60;72.10
210;DHT22;90;48.810;9.120;2023-04-25T16:02:15;11.80;72.00
210;DHT22;90;48.810;9.120;2023-04-25T16:04:41;11.70;71.30
210;DHT22;90;48.810;9.120;2023-04-25T16:07:10;11.50;70.70
210;DHT22;90;48.810;9.120;2023-04-25T16:09:37;11.40;71.20
210;DHT22;90;48.810;9.120;2023-04-25T16:12:05;11.40;71.70
210;DHT22;90;48.810;9.120;2023-04-25T16:14:32;11.40;72.10
210;DHT22;90;48.810;9.120;2023-04-25T16:16:59;11.40;71.60
210;DHT22;90;48.810;9.120;2023-04-25T16:19:26;11.40;71.50
210;DHT22;90;48.810;9.120;2023-04-25T16:21:53;11.40;72.30
210;DHT22;90;48.810;9.120;2023-04-25T16:24:21;11.40;72.20
210;DHT22;90;48.810;9.120;2023-04-25T16:26:48;11.40;71.60
210;DHT22;90;48.810;9.120;2023-04-25T16:29:14;11.30;71.10
210;DHT22;90;48.810;9.120;2023-04-25T16:31:42;11.30;71.60
210;DHT22;90;48.810;9.120;2023-04-25T16:34:09;11.20;71.00
210;DHT22;90;48.810;9.120;2023-04-25T16:36:36;11.20;71.40
210;DHT22;90;48.810;9.120;2023-04-25T16:39:02;11.20;71.40
210;DHT22;90;48.810;9.120;2023-04-25T16:41:31;11.20;72.10
210;DHT22;90;48.810;9.120;2023-04-25T16:43:57;11.20;71.20
210;DHT22;90;48.810;9.120;2023-04-25T16:46:24;11.10;71.30
210;DHT22;90;48.810;9.120;2023-04-25T16:48:51;11.10;72.30
210;DHT22;90;48.810;9.120;2023-04-25T16:51:17;11.00;72.70
210;DHT22;90;48.810;9.120;2023-04-25T16:53:44;11.00;73.00
210;DHT22;90;48.810;9.120;2023-04-25T16:56:12;10.90;73.00
210;DHT22;90;48.810;9.120;2023-04-25T16:58:40;10.90;73.60
210;DHT22;90;48.810;9.120;2023-04-25T17:01:07;10.80;73.50
210;DHT22;90;48.810;9.120;2023-04-25T17:03:34;10.90;73.90
210;DHT22;90;48.810;9.120;2023-04-25T17:06:01;10.80;72.60